Time;durP1;ratioP1;P1;durP2;ratioP2;P2;SDS_P1;SDS_P2;PMS_P1;PMS_P2;Temp;Humidity;BMP_temperature;BMP_pressure;BME280_temperature;BME280_humidity;BME280_pressure;Samples;Min_cycle;Max_cycle;Signal;HPM_P1;HPM_P2
2022/10/07 00:00:42;;;;;;;1.35;0.90;;;21.80;58.30;;;;;;5035095;28;20512;-66
2022/10/07 00:03:08;;;;;;;2.30;1.08;;;21.80;58.20;;;;;;5037118;28;20021;-66
2022/10/07 00:05:34;;;;;;;2.65;1.35;;;21.80;58.20;;;;;;5039771;28;20354;-66
2022/10/07 00:07:59;;;;;;;2.17;1.10;;;21.80;58.20;;;;;;5049300;28;20481;-66
2022/10/07 00:10:26;;;;;;;1.27;1.00;;;21.80;58.20;;;;;;5031700;28;20025;-66
2022/10/07 00:12:52;;;;;;;1.92;1.10;;;21.80;58.20;;;;;;5032358;28;20438;-65
2022/10/07 00:15:18;;;;;;;1.63;1.00;;;21.80;58.20;;;;;;5037938;28;20148;-65
2022/10/07 00:17:44;;;;;;;1.85;1.10;;;21.80;58.20;;;;;;5038259;28;20051;-65
2022/10/07 00:20:10;;;;;;;1.50;1.00;;;21.80;58.20;;;;;;5036719;28;20033;-66
2022/10/07 00:22:35;;;;;;;1.60;1.10;;;21.80;58.20;;;;;;5040023;28;20166;-67
2022/10/07 00:25:01;;;;;;;1.30;0.80;;;21.80;58.20;;;;;;5042057;28;20044;-66
2022/10/07 00:27:26;;;;;;;2.03;1.08;;;21.80;58.20;;;;;;5038341;28;20052;-66
2022/10/07 00:29:52;;;;;;;2.25;1.13;;;21.80;58.20;;;;;;5041145;28;20104;-66
2022/10/07 00:32:18;;;;;;;2.00;1.30;;;21.70;58.20;;;;;;5037862;28;20427;-65
2022/10/07 00:34:43;;;;;;;1.83;1.00;;;21.80;58.20;;;;;;5041536;28;20033;-66
2022/10/07 00:37:09;;;;;;;2.00;1.05;;;21.70;58.10;;;;;;5039824;28;20049;-66
2022/10/07 00:39:34;;;;;;;1.63;0.95;;;21.70;58.60;;;;;;5040121;28;20040;-67
2022/10/07 00:42:00;;;;;;;1.60;0.90;;;21.80;58.20;;;;;;5038830;28;20036;-66
2022/10/07 00:44:37;;;;;;;2.25;1.10;;;21.80;58.20;;;;;;5037860;28;20494;-66
2022/10/07 00:47:22;;;;;;;2.25;1.35;;;21.70;58.10;;;;;;5036080;28;20049;-66
2022/10/07 00:49:54;;;;;;;1.90;1.00;;;21.70;58.10;;;;;;5035956;28;20013;-65
2022/10/07 00:52:23;;;;;;;2.00;1.10;;;21.70;58.10;;;;;;5035194;28;20025;-66
2022/10/07 00:54:52;;;;;;;2.08;1.20;;;21.70;58.10;;;;;;5038256;28;20043;-66
2022/10/07 00:57:20;;;;;;;1.38;0.90;;;21.80;58.10;;;;;;5035385;28;20474;-66
2022/10/07 00:59:46;;;;;;;1.83;1.02;;;21.70;58.10;;;;;;5053745;28;20036;-65
2022/10/07 01:02:12;;;;;;;1.73;1.00;;;21.70;58.10;;;;;;5041363;28;20025;-65
2022/10/07 01:04:38;;;;;;;1.73;1.00;;;21.70;58.10;;;;;;5038152;28;20022;-65
2022/10/07 01:07:04;;;;;;;1.40;0.93;;;21.70;58.10;;;;;;5040298;28;20199;-67
2022/10/07 01:09:30;;;;;;;1.48;0.90;;;21.70;58.10;;;;;;5037345;28;20112;-66
2022/10/07 01:12:09;;;;;;;1.58;1.10;;;21.70;58.10;;;;;;5035950;28;20029;-67
2022/10/07 01:14:35;;;;;;;;;;;21.70;58.10;;;;;;5033648;28;20041;-66
2022/10/07 01:17:24;;;;;;;1.88;1.15;;;21.70;58.10;;;;;;5038128;28;19924;-65
2022/10/07 01:20:00;;;;;;;1.60;0.98;;;21.70;58.10;;;;;;5038310;28;20059;-66
2022/10/07 01:22:28;;;;;;;1.73;1.20;;;21.70;58.10;;;;;;5037312;28;20473;-66
2022/10/07 01:25:51;;;;;;;1.45;1.08;;;21.70;58.10;;;;;;5039441;28;20022;-66
2022/10/07 01:28:32;;;;;;;1.17;0.88;;;21.70;58.10;;;;;;4996416;28;20030;-66
2022/10/07 01:31:03;;;;;;;1.50;0.90;;;21.70;58.10;;;;;;5002596;28;20116;-67
2022/10/07 01:33:31;;;;;;;1.90;1.00;;;21.70;58.10;;;;;;5025880;28;20068;-67
2022/10/07 01:36:03;;;;;;;2.08;1.08;;;21.70;58.10;;;;;;5036061;28;20064;-66
2022/10/07 01:38:32;;;;;;;1.52;0.93;;;21.70;58.10;;;;;;5031187;28;20040;-66
2022/10/07 01:41:03;;;;;;;1.10;0.80;;;21.70;58.10;;;;;;5038124;28;20075;-65
2022/10/07 01:43:31;;;;;;;1.45;0.90;;;21.70;58.10;;;;;;5039326;28;20502;-65
2022/10/07 01:45:57;;;;;;;1.20;0.90;;;21.70;58.10;;;;;;5038866;28;20021;-66
2022/10/07 01:48:23;;;;;;;1.55;1.00;;;21.70;58.00;;;;;;5037000;28;20029;-67
2022/10/07 01:50:50;;;;;;;2.03;1.08;;;21.70;58.00;;;;;;5034356;28;20029;-65
2022/10/07 01:53:30;;;;;;;1.60;0.98;;;21.70;58.00;;;;;;5037341;28;20021;-66
2022/10/07 01:56:01;;;;;;;;;;;21.70;58.10;;;;;;5032837;28;20028;-66
2022/10/07 01:58:55;;;;;;;1.55;1.05;;;21.70;58.10;;;;;;5036497;28;20260;-67
2022/10/07 02:01:37;;;;;;;1.23;0.80;;;21.70;58.10;;;;;;5036587;28;20107;-66
2022/10/07 02:04:03;;;;;;;1.40;0.90;;;21.70;58.00;;;;;;5036181;28;20029;-66
2022/10/07 02:06:39;;;;;;;1.95;0.98;;;21.70;58.00;;;;;;5035932;28;20040;-65
2022/10/07 02:09:31;;;;;;;0.80;0.80;;;21.70;58.10;;;;;;5038483;28;20361;-66
2022/10/07 02:12:15;;;;;;;1.55;0.93;;;21.70;58.10;;;;;;5034372;28;20394;-67
2022/10/07 02:15:07;;;;;;;1.45;0.95;;;21.70;58.10;;;;;;5035445;28;20033;-66
2022/10/07 02:17:36;;;;;;;1.42;0.90;;;21.70;58.00;;;;;;5034727;28;20645;-66
2022/10/07 02:20:04;;;;;;;1.55;0.93;;;21.70;58.00;;;;;;5039075;28;20083;-66
2022/10/07 02:22:32;;;;;;;1.48;1.00;;;21.70;58.10;;;;;;5038994;28;20125;-67
2022/10/07 02:24:58;;;;;;;1.10;0.82;;;21.70;58.10;;;;;;5037885;28;20033;-67
2022/10/07 02:27:28;;;;;;;1.40;0.90;;;21.70;58.10;;;;;;5039024;28;20049;-65
2022/10/07 02:29:58;;;;;;;1.88;1.30;;;21.70;58.10;;;;;;5034489;28;20045;-66
2022/10/07 02:32:27;;;;;;;1.58;0.95;;;21.70;58.10;;;;;;5032275;28;20033;-66
2022/10/07 02:35:01;;;;;;;1.60;1.00;;;21.60;58.00;;;;;;5032231;28;20315;-66
2022/10/07 02:37:34;;;;;;;1.17;0.93;;;21.60;58.00;;;;;;5036145;28;20021;-66
2022/10/07 02:40:03;;;;;;;1.42;0.95;;;21.60;58.00;;;;;;5035645;28;20029;-66
2022/10/07 02:42:41;;;;;;;1.40;0.93;;;21.70;58.10;;;;;;5031658;28;20382;-65
2022/10/07 02:45:30;;;;;;;1.27;0.88;;;21.60;58.00;;;;;;5040600;28;20039;-66
2022/10/07 02:48:22;;;;;;;1.58;1.00;;;21.60;58.00;;;;;;5036706;28;20084;-67
2022/10/07 02:50:54;;;;;;;1.15;0.80;;;21.60;58.00;;;;;;5038396;28;20391;-66
2022/10/07 02:53:22;;;;;;;1.27;0.88;;;21.60;58.00;;;;;;5039282;28;20022;-66
2022/10/07 02:55:51;;;;;;;2.05;1.08;;;21.60;58.00;;;;;;5041837;28;20037;-66
2022/10/07 02:58:20;;;;;;;1.45;0.88;;;21.60;58.00;;;;;;5040278;28;20033;-66
2022/10/07 03:00:51;;;;;;;1.50;0.88;;;21.60;58.00;;;;;;5042703;28;20041;-66
2022/10/07 03:03:17;;;;;;;1.50;0.93;;;21.60;58.00;;;;;;5040779;28;20029;-66
2022/10/07 03:05:43;;;;;;;1.27;0.90;;;21.60;58.00;;;;;;5043221;28;20025;-66
2022/10/07 03:08:10;;;;;;;1.23;0.90;;;21.60;58.00;;;;;;5038663;28;20045;-66
2022/10/07 03:10:36;;;;;;;1.73;1.00;;;21.60;58.00;;;;;;5036898;28;20030;-66
2022/10/07 03:13:03;;;;;;;1.17;0.90;;;21.60;58.50;;;;;;5040974;28;20025;-65
2022/10/07 03:15:30;;;;;;;1.45;1.00;;;21.60;58.00;;;;;;5039032;28;20406;-66
2022/10/07 03:17:56;;;;;;;1.23;0.88;;;21.60;58.00;;;;;;5038496;28;20504;-66
2022/10/07 03:20:22;;;;;;;1.20;1.00;;;21.60;58.00;;;;;;5037706;28;20036;-66
2022/10/07 03:22:47;;;;;;;1.48;1.00;;;21.60;58.00;;;;;;5040379;28;20100;-65
2022/10/07 03:25:14;;;;;;;1.00;0.80;;;21.60;58.00;;;;;;5032454;28;20017;-66
2022/10/07 03:27:41;;;;;;;1.35;0.90;;;21.60;58.00;;;;;;5034741;28;20185;-67
2022/10/07 03:30:08;;;;;;;1.75;1.30;;;21.60;58.00;;;;;;5039448;28;20472;-66
2022/10/07 03:32:35;;;;;;;1.95;1.02;;;21.60;58.00;;;;;;5037718;28;20021;-66
2022/10/07 03:35:00;;;;;;;1.50;0.90;;;21.60;58.00;;;;;;5030698;28;20112;-66
2022/10/07 03:37:28;;;;;;;1.15;0.93;;;21.60;58.00;;;;;;5040419;28;20451;-67
2022/10/07 03:39:54;;;;;;;1.55;1.00;;;21.60;58.00;;;;;;5040882;28;20425;-66
2022/10/07 03:42:19;;;;;;;1.95;0.90;;;21.60;58.00;;;;;;5041667;28;20032;-66
2022/10/07 03:44:47;;;;;;;1.73;1.00;;;21.60;58.00;;;;;;5039482;28;20033;-66
2022/10/07 03:47:14;;;;;;;1.48;0.95;;;21.60;58.00;;;;;;5041851;28;20024;-66
2022/10/07 03:49:40;;;;;;;1.80;1.00;;;21.60;58.00;;;;;;5038031;28;20056;-65
2022/10/07 03:52:05;;;;;;;1.48;1.08;;;21.60;58.00;;;;;;5034335;28;20049;-67
2022/10/07 03:54:32;;;;;;;1.13;0.90;;;21.60;58.00;;;;;;5040331;28;20563;-67
2022/10/07 03:56:58;;;;;;;1.45;1.00;;;21.60;58.00;;;;;;5039015;28;20084;-67
2022/10/07 03:59:23;;;;;;;1.08;0.77;;;21.60;58.00;;;;;;5036957;28;20033;-66
2022/10/07 04:01:49;;;;;;;1.58;1.00;;;21.60;58.00;;;;;;5031057;28;20039;-66
2022/10/07 04:04:15;;;;;;;1.55;0.98;;;21.60;58.00;;;;;;5046325;28;20079;-66
2022/10/07 04:06:42;;;;;;;1.35;0.90;;;21.60;58.00;;;;;;5040757;28;20026;-66
2022/10/07 04:09:08;;;;;;;1.17;0.82;;;21.60;57.90;;;;;;5036277;28;20025;-66
2022/10/07 04:11:34;;;;;;;1.23;0.90;;;21.60;58.00;;;;;;5033207;28;20025;-66
2022/10/07 04:14:00;;;;;;;1.10;0.80;;;21.60;58.00;;;;;;5033684;28;20116;-65
2022/10/07 04:16:26;;;;;;;1.00;0.80;;;21.60;57.90;;;;;;5035746;28;20127;-65
2022/10/07 04:18:55;;;;;;;1.42;0.90;;;21.60;57.90;;;;;;5037361;28;20596;-65
2022/10/07 04:21:21;;;;;;;1.30;0.90;;;21.60;57.90;;;;;;5040704;28;20048;-65
2022/10/07 04:23:47;;;;;;;1.10;0.80;;;21.60;58.20;;;;;;5043596;28;20052;-66
2022/10/07 04:26:13;;;;;;;2.28;1.00;;;21.60;57.90;;;;;;5040094;28;20432;-64
2022/10/07 04:28:39;;;;;;;1.67;0.95;;;21.60;58.00;;;;;;5037829;28;20107;-66
2022/10/07 04:31:07;;;;;;;1.40;0.90;;;21.60;58.00;;;;;;5038839;28;20397;-65
2022/10/07 04:33:36;;;;;;;1.15;0.82;;;21.60;57.90;;;;;;5040293;28;20032;-65
2022/10/07 04:36:04;;;;;;;1.48;0.90;;;21.60;57.90;;;;;;5037373;28;20033;-65
2022/10/07 04:38:31;;;;;;;1.60;1.00;;;21.60;57.90;;;;;;5031064;28;20350;-66
2022/10/07 04:40:57;;;;;;;1.30;0.90;;;21.60;57.90;;;;;;5035287;28;20021;-65
2022/10/07 04:43:25;;;;;;;1.33;0.90;;;21.60;58.00;;;;;;5036442;28;20129;-64
2022/10/07 04:45:53;;;;;;;1.02;0.80;;;21.60;57.90;;;;;;5039877;28;20480;-65
2022/10/07 04:48:21;;;;;;;1.00;0.80;;;21.60;57.90;;;;;;5034209;28;20017;-65
2022/10/07 04:50:48;;;;;;;1.00;0.77;;;21.60;57.90;;;;;;5037057;28;20500;-66
2022/10/07 04:53:15;;;;;;;1.50;0.90;;;21.60;57.90;;;;;;5033423;28;20115;-66
2022/10/07 04:55:51;;;;;;;1.13;0.80;;;21.60;58.50;;;;;;5045881;28;20029;-65
2022/10/07 04:58:18;;;;;;;1.63;1.00;;;21.60;57.90;;;;;;5039272;28;20473;-65
2022/10/07 05:00:49;;;;;;;1.13;0.82;;;21.60;57.90;;;;;;5040449;28;20538;-65
2022/10/07 05:03:16;;;;;;;1.17;0.95;;;21.60;57.90;;;;;;5038844;28;20481;-64
2022/10/07 05:05:47;;;;;;;1.38;0.90;;;21.50;57.90;;;;;;5036614;28;20432;-64
2022/10/07 05:08:14;;;;;;;1.42;1.00;;;21.50;57.90;;;;;;5040168;28;20465;-64
2022/10/07 05:10:41;;;;;;;1.38;0.90;;;21.50;57.90;;;;;;5039812;28;20576;-66
2022/10/07 05:13:12;;;;;;;1.88;1.00;;;21.50;57.90;;;;;;5039425;28;20095;-65
2022/10/07 05:15:49;;;;;;;0.98;0.88;;;21.50;57.90;;;;;;5037451;28;20027;-65
2022/10/07 05:18:17;;;;;;;0.85;0.80;;;21.60;58.00;;;;;;5037195;28;20044;-66
2022/10/07 05:20:45;;;;;;;1.83;1.05;;;21.50;57.90;;;;;;5036135;28;20481;-64
2022/10/07 05:23:11;;;;;;;1.75;1.00;;;21.50;57.90;;;;;;5035573;28;20469;-66
2022/10/07 05:25:37;;;;;;;1.27;0.82;;;21.50;57.90;;;;;;5036123;28;20079;-65
2022/10/07 05:28:02;;;;;;;1.48;0.90;;;21.50;57.90;;;;;;5035124;28;20097;-66
2022/10/07 05:30:28;;;;;;;1.13;0.80;;;21.60;58.50;;;;;;5032391;28;20086;-64
2022/10/07 05:32:54;;;;;;;1.52;0.85;;;21.50;57.90;;;;;;5031362;28;20032;-65
2022/10/07 05:35:20;;;;;;;1.20;0.90;;;21.50;57.90;;;;;;5036056;28;20127;-65
2022/10/07 05:37:46;;;;;;;1.13;0.90;;;21.60;58.00;;;;;;5038203;28;20095;-66
2022/10/07 05:40:12;;;;;;;0.98;0.80;;;21.50;57.90;;;;;;5038943;28;20112;-65
2022/10/07 05:42:38;;;;;;;1.35;0.90;;;21.50;57.90;;;;;;5039936;28;20108;-65
2022/10/07 05:45:04;;;;;;;1.20;0.90;;;21.50;57.90;;;;;;5036209;28;20112;-66
2022/10/07 05:47:32;;;;;;;1.17;0.82;;;21.50;58.00;;;;;;5038987;28;20144;-66
2022/10/07 05:49:58;;;;;;;1.92;1.00;;;21.50;58.00;;;;;;5037650;28;20032;-66
2022/10/07 05:52:23;;;;;;;1.48;0.90;;;21.50;57.90;;;;;;5035625;28;20022;-66
2022/10/07 05:54:50;;;;;;;1.30;0.93;;;21.50;58.00;;;;;;5041204;28;20036;-65
2022/10/07 05:57:16;;;;;;;1.45;0.90;;;21.50;58.00;;;;;;5037513;28;20175;-65
2022/10/07 05:59:42;;;;;;;1.92;1.00;;;21.50;58.00;;;;;;5036769;28;20053;-65
2022/10/07 06:02:17;;;;;;;1.58;0.90;;;21.50;58.00;;;;;;5036715;28;20033;-66
2022/10/07 06:04:45;;;;;;;1.55;0.90;;;21.50;58.00;;;;;;5035816;28;20021;-65
2022/10/07 06:07:11;;;;;;;1.23;0.90;;;21.50;57.90;;;;;;5033878;28;20022;-65
2022/10/07 06:15:08;;;;;;;2.05;1.00;;;21.50;58.00;;;;;;5038460;28;20041;-65
2022/10/07 06:17:35;;;;;;;1.55;0.90;;;21.50;57.90;;;;;;5040625;28;20049;-65
2022/10/07 06:20:01;;;;;;;2.08;1.00;;;21.50;58.00;;;;;;5042519;28;20474;-66
2022/10/07 06:22:27;;;;;;;1.30;0.88;;;21.50;58.00;;;;;;5039098;28;20124;-66
2022/10/07 06:24:56;;;;;;;1.15;0.88;;;21.50;58.00;;;;;;5039830;28;20037;-66
2022/10/07 06:27:23;;;;;;;;;;;21.50;58.00;;;;;;5042287;28;20028;-66
2022/10/07 06:29:49;;;;;;;1.88;0.98;;;21.50;58.00;;;;;;5039904;28;19911;-66
2022/10/07 06:32:14;;;;;;;1.42;0.90;;;21.50;57.90;;;;;;5037638;28;20370;-65
2022/10/07 06:34:40;;;;;;;3.53;0.95;;;21.50;57.90;;;;;;5034593;28;20140;-64
2022/10/07 06:37:05;;;;;;;1.60;1.00;;;21.50;58.00;;;;;;5039796;28;20025;-65
2022/10/07 06:39:31;;;;;;;1.20;0.90;;;21.50;58.00;;;;;;5041818;28;20160;-66
2022/10/07 06:41:57;;;;;;;1.30;0.85;;;21.50;57.90;;;;;;5043707;28;20025;-65
2022/10/07 06:44:22;;;;;;;1.35;0.82;;;21.50;58.00;;;;;;5040921;28;20029;-66
2022/10/07 06:46:48;;;;;;;2.33;0.90;;;21.50;58.00;;;;;;5043157;28;20036;-66
2022/10/07 06:49:13;;;;;;;1.50;0.90;;;21.40;57.90;;;;;;5040882;28;20396;-65
2022/10/07 06:51:39;;;;;;;1.50;0.90;;;21.50;58.00;;;;;;5039287;28;20136;-66
2022/10/07 06:54:05;;;;;;;1.48;0.90;;;21.50;58.00;;;;;;5039639;28;20048;-65
2022/10/07 06:56:30;;;;;;;1.27;0.80;;;21.40;57.90;;;;;;5039249;28;20022;-65
2022/10/07 06:58:56;;;;;;;1.35;0.90;;;21.40;57.90;;;;;;5044125;28;20021;-66
2022/10/07 07:01:21;;;;;;;1.10;0.82;;;21.50;58.00;;;;;;5039414;28;20040;-65
2022/10/07 07:03:47;;;;;;;1.27;0.80;;;21.50;58.00;;;;;;5041217;28;20096;-64
2022/10/07 07:06:13;;;;;;;0.98;0.73;;;21.40;57.90;;;;;;5039746;28;20087;-65
2022/10/07 07:08:40;;;;;;;1.77;0.85;;;21.40;57.90;;;;;;5038961;28;20385;-66
2022/10/07 07:13:55;;;;;;;1.45;0.90;;;21.50;58.00;;;;;;5037567;28;20028;-66
2022/10/07 07:16:23;;;;;;;1.08;0.80;;;21.40;57.90;;;;;;5038165;28;20058;-66
2022/10/07 07:18:56;;;;;;;1.50;0.98;;;21.40;57.90;;;;;;5040005;28;20029;-65
2022/10/07 07:21:22;;;;;;;1.10;0.85;;;21.50;58.00;;;;;;5037478;28;20037;-65
2022/10/07 07:23:50;;;;;;;2.00;1.00;;;21.40;57.90;;;;;;5037599;28;20083;-66
2022/10/07 07:26:17;;;;;;;1.10;0.80;;;21.50;58.00;;;;;;5038849;28;20037;-65
2022/10/07 07:28:43;;;;;;;1.63;0.98;;;21.40;57.90;;;;;;5042094;28;20017;-66
2022/10/07 07:31:11;;;;;;;1.27;0.90;;;21.40;57.90;;;;;;5041124;28;20034;-66
2022/10/07 07:33:38;;;;;;;2.00;0.95;;;21.40;57.90;;;;;;5038370;28;20024;-66
2022/10/07 07:36:17;;;;;;;1.83;1.05;;;21.50;57.90;;;;;;5039484;28;20107;-66
2022/10/07 07:38:54;;;;;;;0.88;0.80;;;21.50;58.00;;;;;;5042182;28;20396;-65
2022/10/07 07:41:27;;;;;;;1.45;0.90;;;21.40;57.90;;;;;;5038040;28;20128;-66
2022/10/07 07:43:56;;;;;;;1.70;0.93;;;21.40;57.90;;;;;;5041532;28;20036;-65
2022/10/07 07:46:23;;;;;;;1.73;1.00;;;21.40;57.90;;;;;;5037975;28;20029;-65
2022/10/07 07:48:50;;;;;;;1.15;0.80;;;21.50;58.00;;;;;;5039887;28;20472;-66
2022/10/07 07:51:17;;;;;;;1.77;1.00;;;21.40;57.90;;;;;;5036467;28;20100;-65
2022/10/07 07:53:44;;;;;;;1.67;0.93;;;21.40;57.90;;;;;;5033400;28;20032;-64
2022/10/07 07:56:11;;;;;;;1.23;0.93;;;21.40;57.90;;;;;;5040611;28;20057;-66
2022/10/07 07:58:37;;;;;;;1.77;1.10;;;21.50;57.90;;;;;;5039998;28;20075;-65
2022/10/07 08:01:06;;;;;;;1.42;0.90;;;21.40;57.90;;;;;;5032835;28;20064;-66
2022/10/07 08:03:36;;;;;;;1.27;0.90;;;21.40;57.90;;;;;;5028853;28;20117;-65
2022/10/07 08:06:03;;;;;;;1.52;0.90;;;21.40;57.90;;;;;;5027144;28;20116;-66
2022/10/07 08:08:29;;;;;;;1.45;0.90;;;21.40;57.90;;;;;;5040811;28;20045;-65
2022/10/07 08:10:55;;;;;;;1.38;0.93;;;21.40;57.90;;;;;;5038875;28;20136;-65
2022/10/07 08:13:21;;;;;;;1.67;0.90;;;21.40;58.00;;;;;;5040406;28;20389;-65
2022/10/07 08:15:46;;;;;;;1.30;0.80;;;21.40;58.00;;;;;;5040384;28;20052;-66
2022/10/07 08:18:12;;;;;;;1.60;1.02;;;21.40;58.00;;;;;;5041016;28;20038;-66
2022/10/07 08:20:38;;;;;;;0.85;0.63;;;21.40;58.00;;;;;;5041520;28;20033;-62
2022/10/07 08:23:04;;;;;;;1.52;0.93;;;21.40;58.00;;;;;;5039432;28;20036;-66
2022/10/07 08:25:30;;;;;;;1.25;0.70;;;21.40;58.10;;;;;;5040214;28;20033;-65
2022/10/07 08:27:55;;;;;;;1.23;0.93;;;21.40;58.10;;;;;;5034547;28;20056;-66
2022/10/07 08:30:22;;;;;;;1.55;0.90;;;21.40;58.10;;;;;;5032448;28;20040;-65
2022/10/07 08:32:47;;;;;;;1.58;0.90;;;21.40;58.10;;;;;;5034790;28;20041;-65
2022/10/07 08:35:13;;;;;;;1.67;0.90;;;21.40;58.10;;;;;;5040383;28;20025;-66
2022/10/07 08:37:39;;;;;;;1.05;0.80;;;21.40;58.10;;;;;;5036725;28;20179;-65
2022/10/07 08:40:05;;;;;;;1.25;0.90;;;21.40;58.20;;;;;;5030620;28;20385;-66
2022/10/07 08:42:38;;;;;;;1.05;0.80;;;21.40;58.10;;;;;;5035663;28;20041;-66
2022/10/07 08:45:09;;;;;;;1.17;0.70;;;21.40;58.20;;;;;;5033030;28;20029;-66
2022/10/07 08:47:42;;;;;;;1.00;0.80;;;21.40;58.20;;;;;;5038938;28;20026;-66
2022/10/07 08:50:30;;;;;;;1.48;0.90;;;21.40;58.20;;;;;;5037613;28;20109;-65
2022/10/07 08:53:00;;;;;;;1.15;0.85;;;21.40;58.20;;;;;;5051588;28;20022;-65
2022/10/07 08:55:48;;;;;;;1.67;0.80;;;21.40;58.20;;;;;;5034245;28;20029;-66
2022/10/07 08:58:48;;;;;;;1.20;0.90;;;21.40;58.20;;;;;;5037260;28;20366;-65
2022/10/07 09:01:35;;;;;;;1.38;0.90;;;21.40;58.20;;;;;;5036304;28;20489;-64
2022/10/07 09:04:05;;;;;;;1.05;0.80;;;21.40;58.20;;;;;;5036391;28;20029;-66
2022/10/07 09:06:37;;;;;;;1.10;0.80;;;21.40;58.20;;;;;;5035660;28;20029;-65
2022/10/07 09:09:11;;;;;;;0.75;0.70;;;21.40;58.30;;;;;;5038673;28;20033;-65
2022/10/07 09:11:40;;;;;;;1.25;0.70;;;21.40;58.20;;;;;;5034108;28;20724;-65
2022/10/07 09:14:28;;;;;;;1.10;0.80;;;21.40;58.20;;;;;;5035813;28;20102;-65
2022/10/07 09:17:02;;;;;;;1.27;0.80;;;21.40;58.20;;;;;;5032822;28;20069;-65
2022/10/07 09:19:32;;;;;;;0.77;0.73;;;21.40;58.20;;;;;;5034297;28;20060;-65
2022/10/07 09:22:05;;;;;;;2.10;1.58;;;21.40;58.20;;;;;;5030504;28;20144;-66
2022/10/07 09:24:33;;;;;;;1.77;0.80;;;21.40;58.10;;;;;;5034544;28;20473;-65
2022/10/07 09:27:01;;;;;;;1.35;0.80;;;21.40;58.10;;;;;;5035724;28;20033;-66
2022/10/07 09:29:29;;;;;;;1.50;0.90;;;21.40;58.10;;;;;;5032718;28;20595;-66
2022/10/07 09:31:57;;;;;;;1.60;0.80;;;21.40;58.10;;;;;;5029624;28;20051;-64
2022/10/07 09:34:26;;;;;;;0.70;0.70;;;21.40;58.10;;;;;;5023662;28;20425;-65
2022/10/07 09:37:17;;;;;;;1.20;0.80;;;21.40;58.10;;;;;;5035302;28;20056;-66
2022/10/07 09:39:44;;;;;;;1.52;0.93;;;21.40;58.10;;;;;;5035116;28;20029;-66
2022/10/07 09:42:42;;;;;;;1.25;0.80;;;21.40;58.10;;;;;;5038160;28;20040;-66
2022/10/07 09:45:25;;;;;;;1.73;0.90;;;21.40;58.10;;;;;;5039620;28;20047;-66
2022/10/07 09:47:54;;;;;;;1.42;0.80;;;21.40;58.10;;;;;;5038419;28;20068;-66
2022/10/07 09:50:40;;;;;;;1.55;0.98;;;21.40;58.10;;;;;;5038035;28;20108;-66
2022/10/07 09:53:17;;;;;;;1.27;0.90;;;21.40;58.10;;;;;;5040285;28;20532;-66
2022/10/07 09:55:43;;;;;;;1.55;1.00;;;21.40;58.10;;;;;;5035158;28;20044;-66
2022/10/07 09:58:26;;;;;;;1.35;0.80;;;21.40;58.00;;;;;;5030983;28;20388;-66
2022/10/07 10:00:57;;;;;;;1.60;0.80;;;21.40;58.00;;;;;;5031071;28;20457;-66
2022/10/07 10:03:34;;;;;;;0.75;0.60;;;21.40;58.00;;;;;;5038256;28;20061;-66
2022/10/07 10:06:05;;;;;;;1.40;0.90;;;21.50;58.00;;;;;;5034629;28;20037;-66
2022/10/07 10:08:37;;;;;;;1.92;0.85;;;21.50;58.10;;;;;;5031399;28;20087;-66
2022/10/07 10:11:05;;;;;;;1.52;0.80;;;21.50;58.10;;;;;;5035103;28;20062;-66
2022/10/07 10:13:37;;;;;;;1.65;0.90;;;21.50;58.10;;;;;;5036212;28;20025;-65
2022/10/07 10:16:06;;;;;;;1.40;0.90;;;21.50;58.10;;;;;;5037078;28;20026;-66
2022/10/07 10:18:36;;;;;;;1.73;0.80;;;21.50;58.00;;;;;;5046178;28;20099;-65
2022/10/07 10:21:18;;;;;;;0.82;0.70;;;21.50;58.00;;;;;;5036858;28;20036;-66
2022/10/07 10:23:47;;;;;;;1.15;0.77;;;21.50;58.10;;;;;;5035228;28;20025;-66
2022/10/07 10:26:46;;;;;;;2.10;0.88;;;21.50;58.00;;;;;;5034010;28;20029;-66
2022/10/07 10:29:12;;;;;;;1.10;0.77;;;21.50;58.00;;;;;;5039699;28;20480;-65
2022/10/07 10:31:47;;;;;;;1.20;0.77;;;21.50;58.10;;;;;;5037178;28;20046;-66
2022/10/07 10:34:34;;;;;;;2.00;0.80;;;21.50;58.10;;;;;;5035919;28;20025;-65
2022/10/07 10:37:44;;;;;;;0.90;0.73;;;21.50;58.00;;;;;;5035530;28;20036;-65
2022/10/07 10:40:18;;;;;;;1.85;0.80;;;21.50;58.10;;;;;;5035466;28;20030;-65
2022/10/07 10:43:09;;;;;;;1.85;0.90;;;21.50;58.40;;;;;;5038518;28;20025;-66
2022/10/07 10:45:56;;;;;;;1.15;0.80;;;21.50;58.20;;;;;;5034689;28;20555;-66
2022/10/07 10:48:46;;;;;;;1.80;0.82;;;21.50;58.00;;;;;;5036333;28;20192;-65
2022/10/07 10:51:33;;;;;;;1.80;0.90;;;21.50;58.10;;;;;;5031290;28;20025;-65
2022/10/07 10:54:20;;;;;;;1.30;0.70;;;21.50;58.20;;;;;;5030307;28;20021;-66
2022/10/07 10:57:14;;;;;;;0.95;0.80;;;21.60;58.20;;;;;;5037819;28;20409;-66
2022/10/07 11:00:18;;;;;;;1.20;0.75;;;21.60;58.20;;;;;;5036773;28;20040;-66
2022/10/07 11:03:14;;;;;;;1.33;0.70;;;21.60;58.20;;;;;;5040459;28;20064;-66
2022/10/07 11:05:41;;;;;;;1.08;0.80;;;21.60;58.30;;;;;;5040893;28;20554;-65
2022/10/07 11:08:22;;;;;;;1.15;0.75;;;21.60;58.30;;;;;;5039738;28;20104;-65
2022/10/07 11:11:10;;;;;;;1.75;0.98;;;21.60;58.40;;;;;;5037331;28;20420;-65
2022/10/07 11:13:50;;;;;;;1.42;0.77;;;21.60;58.40;;;;;;5036907;28;20104;-65
2022/10/07 11:16:20;;;;;;;1.42;0.80;;;21.60;58.40;;;;;;5041259;28;20064;-65
2022/10/07 11:18:56;;;;;;;;;;;21.60;58.50;;;;;;5044713;28;20025;-66
2022/10/07 11:21:24;;;;;;;1.40;0.80;;;21.60;58.50;;;;;;5040796;28;20034;-66
2022/10/07 11:24:09;;;;;;;1.85;0.90;;;21.60;58.50;;;;;;5038207;28;20037;-66
2022/10/07 11:26:49;;;;;;;1.80;1.00;;;21.60;58.50;;;;;;5040608;28;20485;-66
2022/10/07 11:29:32;;;;;;;1.45;0.77;;;21.60;58.60;;;;;;5034929;28;20067;-64
2022/10/07 11:32:09;;;;;;;1.65;0.80;;;21.60;58.60;;;;;;5038224;28;20493;-65
2022/10/07 11:35:22;;;;;;;1.60;0.90;;;21.60;58.60;;;;;;5038710;28;20427;-66
2022/10/07 11:37:57;;;;;;;1.60;0.93;;;21.60;58.70;;;;;;5041446;28;20029;-66
2022/10/07 11:40:25;;;;;;;2.22;1.13;;;21.60;58.90;;;;;;5039247;28;20026;-66
2022/10/07 11:42:53;;;;;;;2.33;1.10;;;21.60;58.90;;;;;;5037521;28;20401;-66
2022/10/07 11:45:25;;;;;;;1.40;1.00;;;21.60;59.00;;;;;;5039523;28;20543;-66
2022/10/07 11:48:01;;;;;;;1.05;0.70;;;21.60;59.10;;;;;;5035496;28;20033;-66
2022/10/07 11:50:31;;;;;;;1.85;1.00;;;21.60;59.20;;;;;;5036232;28;20057;-66
2022/10/07 11:53:08;;;;;;;1.63;1.00;;;21.70;59.20;;;;;;5032511;28;20037;-67
2022/10/07 11:55:45;;;;;;;1.60;1.00;;;21.70;59.20;;;;;;5029343;28;20360;-65
2022/10/07 11:58:31;;;;;;;2.28;1.25;;;21.70;59.30;;;;;;5036574;28;20135;-66
2022/10/07 12:01:24;;;;;;;2.15;0.90;;;21.70;59.40;;;;;;5052941;28;20381;-66
2022/10/07 12:03:58;;;;;;;1.60;1.00;;;21.70;59.40;;;;;;5040271;28;20086;-66
2022/10/07 12:06:24;;;;;;;1.60;1.05;;;21.70;59.30;;;;;;5038984;28;20390;-66
2022/10/07 12:08:51;;;;;;;1.67;1.00;;;21.70;59.30;;;;;;5039730;28;20059;-66
2022/10/07 12:11:17;;;;;;;2.25;1.00;;;21.70;59.30;;;;;;5041197;28;20048;-66
2022/10/07 12:13:45;;;;;;;1.95;1.00;;;21.70;59.30;;;;;;5038630;28;20022;-66
2022/10/07 12:16:23;;;;;;;1.35;0.90;;;21.70;59.30;;;;;;5040337;28;20041;-66
2022/10/07 12:19:05;;;;;;;2.25;1.00;;;21.70;59.40;;;;;;5037854;28;20075;-66
2022/10/07 12:22:01;;;;;;;2.08;1.20;;;21.70;59.40;;;;;;5037744;28;20064;-66
2022/10/07 12:24:28;;;;;;;2.78;1.38;;;21.70;59.40;;;;;;5039758;28;20028;-66
2022/10/07 12:26:56;;;;;;;1.17;0.90;;;21.70;59.30;;;;;;5038814;28;20025;-66
2022/10/07 12:29:29;;;;;;;1.65;0.90;;;21.70;59.30;;;;;;5040112;28;20106;-66
2022/10/07 12:31:55;;;;;;;1.77;0.88;;;21.70;59.40;;;;;;5030697;28;20037;-66
2022/10/07 12:34:37;;;;;;;1.27;0.93;;;21.80;59.40;;;;;;5038718;28;20461;-66
2022/10/07 12:37:45;;;;;;;2.05;1.02;;;21.70;59.30;;;;;;5055307;28;20021;-66
2022/10/07 12:40:18;;;;;;;1.40;0.90;;;21.80;59.40;;;;;;5009426;28;20030;-66
2022/10/07 12:42:52;;;;;;;1.65;1.00;;;21.80;59.30;;;;;;5009593;28;20029;-66
2022/10/07 12:45:21;;;;;;;3.28;1.02;;;21.80;59.40;;;;;;5027608;28;20083;-64
2022/10/07 12:47:49;;;;;;;1.58;0.95;;;21.80;59.30;;;;;;5039174;28;20043;-66
2022/10/07 12:50:18;;;;;;;1.60;0.90;;;21.80;59.30;;;;;;5042032;28;20107;-65
2022/10/07 12:52:55;;;;;;;2.08;0.90;;;21.80;59.40;;;;;;5035365;28;20767;-65
2022/10/07 12:55:36;;;;;;;1.67;1.00;;;21.80;59.40;;;;;;5039430;28;20112;-65
2022/10/07 13:01:10;;;;;;;1.48;0.93;;;21.80;59.40;;;;;;5034732;28;20449;-66
2022/10/07 13:03:53;;;;;;;1.85;0.95;;;21.80;59.30;;;;;;5038240;28;20032;-66
2022/10/07 13:06:40;;;;;;;1.92;0.90;;;21.80;59.30;;;;;;5033251;28;20445;-65
2022/10/07 13:09:25;;;;;;;1.13;0.98;;;21.80;59.30;;;;;;5035806;28;20021;-65
2022/10/07 13:12:11;;;;;;;1.83;1.00;;;21.80;59.30;;;;;;5036093;28;20026;-65
2022/10/07 13:14:55;;;;;;;1.38;0.90;;;21.90;59.30;;;;;;5034752;28;20029;-66
2022/10/07 13:17:24;;;;;;;1.50;0.88;;;21.80;59.20;;;;;;5037909;28;20089;-66
2022/10/07 13:19:58;;;;;;;2.05;0.70;;;21.90;59.20;;;;;;5036689;28;20033;-66
2022/10/07 13:22:25;;;;;;;1.35;0.80;;;21.90;59.10;;;;;;5029917;28;20037;-65